sensor_id;sensor_type;location;lat;lon;timestamp;P1;durP1;ratioP1;P2;durP2;ratioP2
27847;SDS011;15212;48.830;8.730;2022-07-11T00:01:12;4.17;;;2.42;;
27847;SDS011;15212;48.830;8.730;2022-07-11T00:03:41;3.12;;;2.27;;
27847;SDS011;15212;48.830;8.730;2022-07-11T00:06:09;4.10;;;2.60;;
27847;SDS011;15212;48.830;8.730;2022-07-11T00:08:38;5.78;;;2.77;;
27847;SDS011;15212;48.830;8.730;2022-07-11T00:11:06;3.65;;;2.70;;
27847;SDS011;15212;48.830;8.730;2022-07-11T00:13:34;4.75;;;2.92;;
27847;SDS011;15212;48.830;8.730;2022-07-11T00:16:03;3.42;;;2.95;;
27847;SDS011;15212;48.830;8.730;2022-07-11T00:18:32;4.35;;;2.95;;
27847;SDS011;15212;48.830;8.730;2022-07-11T00:21:00;6.17;;;3.40;;
27847;SDS011;15212;48.830;8.730;2022-07-11T00:23:28;5.17;;;3.30;;
27847;SDS011;15212;48.830;8.730;2022-07-11T00:25:57;3.95;;;3.10;;
27847;SDS011;15212;48.830;8.730;2022-07-11T00:28:25;4.47;;;3.02;;
27847;SDS011;15212;48.830;8.730;2022-07-11T00:30:54;5.42;;;3.47;;
27847;SDS011;15212;48.830;8.730;2022-07-11T00:33:22;6.70;;;3.30;;
27847;SDS011;15212;48.830;8.730;2022-07-11T00:35:51;5.75;;;3.37;;
27847;SDS011;15212;48.830;8.730;2022-07-11T00:38:19;4.22;;;3.20;;
27847;SDS011;15212;48.830;8.730;2022-07-11T00:40:47;5.80;;;3.45;;
27847;SDS011;15212;48.830;8.730;2022-07-11T00:43:16;4.92;;;3.42;;
27847;SDS011;15212;48.830;8.730;2022-07-11T00:45:47;5.03;;;3.60;;
27847;SDS011;15212;48.830;8.730;2022-07-11T00:48:15;4.83;;;3.45;;
27847;SDS011;15212;48.830;8.730;2022-07-11T00:50:43;4.92;;;3.72;;
27847;SDS011;15212;48.830;8.730;2022-07-11T00:53:12;5.35;;;3.75;;
27847;SDS011;15212;48.830;8.730;2022-07-11T00:55:40;4.47;;;3.15;;
27847;SDS011;15212;48.830;8.730;2022-07-11T00:58:09;6.50;;;2.92;;
27847;SDS011;15212;48.830;8.730;2022-07-11T01:00:39;8.85;;;3.70;;
27847;SDS011;15212;48.830;8.730;2022-07-11T01:03:08;3.98;;;3.58;;
27847;SDS011;15212;48.830;8.730;2022-07-11T01:05:37;5.20;;;3.55;;
27847;SDS011;15212;48.830;8.730;2022-07-11T01:08:05;5.12;;;3.50;;
27847;SDS011;15212;48.830;8.730;2022-07-11T01:10:34;7.37;;;3.42;;
27847;SDS011;15212;48.830;8.730;2022-07-11T01:13:02;5.70;;;3.60;;
27847;SDS011;15212;48.830;8.730;2022-07-11T01:15:35;4.92;;;3.40;;
27847;SDS011;15212;48.830;8.730;2022-07-11T01:18:04;6.95;;;3.77;;
27847;SDS011;15212;48.830;8.730;2022-07-11T01:20:32;5.03;;;3.30;;
27847;SDS011;15212;48.830;8.730;2022-07-11T01:23:07;5.75;;;3.62;;
27847;SDS011;15212;48.830;8.730;2022-07-11T01:25:35;5.35;;;3.90;;
27847;SDS011;15212;48.830;8.730;2022-07-11T01:28:04;6.03;;;4.10;;
27847;SDS011;15212;48.830;8.730;2022-07-11T01:30:33;5.90;;;4.05;;
27847;SDS011;15212;48.830;8.730;2022-07-11T01:33:01;5.08;;;4.15;;
27847;SDS011;15212;48.830;8.730;2022-07-11T01:35:30;6.70;;;4.20;;
27847;SDS011;15212;48.830;8.730;2022-07-11T01:37:59;6.42;;;4.30;;
27847;SDS011;15212;48.830;8.730;2022-07-11T01:40:27;7.87;;;5.08;;
27847;SDS011;15212;48.830;8.730;2022-07-11T01:42:57;5.35;;;4.75;;
27847;SDS011;15212;48.830;8.730;2022-07-11T01:45:25;7.47;;;4.67;;
27847;SDS011;15212;48.830;8.730;2022-07-11T01:47:53;8.50;;;6.00;;
27847;SDS011;15212;48.830;8.730;2022-07-11T01:50:22;9.15;;;5.12;;
27847;SDS011;15212;48.830;8.730;2022-07-11T01:52:50;9.88;;;5.40;;
27847;SDS011;15212;48.830;8.730;2022-07-11T01:55:18;7.90;;;5.40;;
27847;SDS011;15212;48.830;8.730;2022-07-11T01:57:47;13.80;;;5.15;;
27847;SDS011;15212;48.830;8.730;2022-07-11T02:00:15;7.50;;;4.85;;
27847;SDS011;15212;48.830;8.730;2022-07-11T02:02:44;9.30;;;5.03;;
27847;SDS011;15212;48.830;8.730;2022-07-11T02:05:12;8.48;;;4.92;;
27847;SDS011;15212;48.830;8.730;2022-07-11T02:07:40;6.53;;;5.22;;
27847;SDS011;15212;48.830;8.730;2022-07-11T02:10:10;7.87;;;5.40;;
27847;SDS011;15212;48.830;8.730;2022-07-11T02:12:39;10.20;;;5.50;;
27847;SDS011;15212;48.830;8.730;2022-07-11T02:15:07;11.85;;;5.30;;
27847;SDS011;15212;48.830;8.730;2022-07-11T02:17:36;7.50;;;5.00;;
27847;SDS011;15212;48.830;8.730;2022-07-11T02:20:05;7.00;;;5.20;;
27847;SDS011;15212;48.830;8.730;2022-07-11T02:22:34;7.87;;;5.40;;
27847;SDS011;15212;48.830;8.730;2022-07-11T02:25:02;7.60;;;4.92;;
27847;SDS011;15212;48.830;8.730;2022-07-11T02:27:32;7.78;;;5.75;;
27847;SDS011;15212;48.830;8.730;2022-07-11T02:30:00;6.35;;;5.15;;
27847;SDS011;15212;48.830;8.730;2022-07-11T02:32:29;10.58;;;5.45;;
27847;SDS011;15212;48.830;8.730;2022-07-11T02:34:57;9.05;;;5.92;;
27847;SDS011;15212;48.830;8.730;2022-07-11T02:37:25;9.63;;;5.47;;
27847;SDS011;15212;48.830;8.730;2022-07-11T02:39:54;8.33;;;5.60;;
27847;SDS011;15212;48.830;8.730;2022-07-11T02:42:22;10.65;;;5.55;;
27847;SDS011;15212;48.830;8.730;2022-07-11T02:44:50;8.20;;;5.25;;
27847;SDS011;15212;48.830;8.730;2022-07-11T02:47:19;10.60;;;6.12;;
27847;SDS011;15212;48.830;8.730;2022-07-11T02:49:47;7.37;;;5.55;;
27847;SDS011;15212;48.830;8.730;2022-07-11T02:52:16;8.83;;;5.75;;
27847;SDS011;15212;48.830;8.730;2022-07-11T02:54:44;15.45;;;6.20;;
27847;SDS011;15212;48.830;8.730;2022-07-11T02:57:12;11.18;;;5.47;;
27847;SDS011;15212;48.830;8.730;2022-07-11T02:59:41;7.58;;;5.75;;
27847;SDS011;15212;48.830;8.730;2022-07-11T03:02:09;12.63;;;5.80;;
27847;SDS011;15212;48.830;8.730;2022-07-11T03:04:37;10.10;;;5.97;;
27847;SDS011;15212;48.830;8.730;2022-07-11T03:07:07;8.28;;;5.70;;
27847;SDS011;15212;48.830;8.730;2022-07-11T03:09:35;8.75;;;5.87;;
27847;SDS011;15212;48.830;8.730;2022-07-11T03:12:04;12.18;;;6.15;;
27847;SDS011;15212;48.830;8.730;2022-07-11T03:14:33;9.25;;;6.53;;
27847;SDS011;15212;48.830;8.730;2022-07-11T03:17:01;8.45;;;5.92;;
27847;SDS011;15212;48.830;8.730;2022-07-11T03:19:30;11.93;;;5.90;;
27847;SDS011;15212;48.830;8.730;2022-07-11T03:21:58;9.85;;;6.37;;
27847;SDS011;15212;48.830;8.730;2022-07-11T03:24:27;11.38;;;6.15;;
27847;SDS011;15212;48.830;8.730;2022-07-11T03:26:55;8.83;;;6.12;;
27847;SDS011;15212;48.830;8.730;2022-07-11T03:29:24;7.75;;;5.65;;
27847;SDS011;15212;48.830;8.730;2022-07-11T03:31:53;8.33;;;6.00;;
27847;SDS011;15212;48.830;8.730;2022-07-11T03:34:21;8.65;;;6.42;;
27847;SDS011;15212;48.830;8.730;2022-07-11T03:36:49;9.30;;;6.22;;
27847;SDS011;15212;48.830;8.730;2022-07-11T03:39:18;9.78;;;6.12;;
27847;SDS011;15212;48.830;8.730;2022-07-11T03:41:47;8.65;;;6.50;;
27847;SDS011;15212;48.830;8.730;2022-07-11T03:44:15;10.35;;;6.25;;
27847;SDS011;15212;48.830;8.730;2022-07-11T03:46:43;10.68;;;6.70;;
27847;SDS011;15212;48.830;8.730;2022-07-11T03:49:12;14.00;;;6.92;;
27847;SDS011;15212;48.830;8.730;2022-07-11T03:51:40;11.12;;;6.90;;
27847;SDS011;15212;48.830;8.730;2022-07-11T03:54:10;9.43;;;6.72;;
27847;SDS011;15212;48.830;8.730;2022-07-11T03:56:38;9.25;;;6.42;;
27847;SDS011;15212;48.830;8.730;2022-07-11T03:59:07;12.30;;;7.67;;
27847;SDS011;15212;48.830;8.730;2022-07-11T04:01:35;9.43;;;6.60;;
27847;SDS011;15212;48.830;8.730;2022-07-11T04:04:03;13.43;;;7.53;;
27847;SDS011;15212;48.830;8.730;2022-07-11T04:06:33;14.20;;;7.40;;
27847;SDS011;15212;48.830;8.730;2022-07-11T04:09:02;14.53;;;8.80;;
27847;SDS011;15212;48.830;8.730;2022-07-11T04:11:30;10.68;;;6.83;;
27847;SDS011;15212;48.830;8.730;2022-07-11T04:13:59;12.45;;;6.92;;
27847;SDS011;15212;48.830;8.730;2022-07-11T04:16:27;10.85;;;6.70;;
27847;SDS011;15212;48.830;8.730;2022-07-11T04:18:56;11.28;;;6.87;;
27847;SDS011;15212;48.830;8.730;2022-07-11T04:21:24;11.43;;;6.75;;
27847;SDS011;15212;48.830;8.730;2022-07-11T04:23:52;10.38;;;6.83;;
27847;SDS011;15212;48.830;8.730;2022-07-11T04:26:21;12.78;;;7.20;;
27847;SDS011;15212;48.830;8.730;2022-07-11T04:28:49;12.98;;;7.75;;
27847;SDS011;15212;48.830;8.730;2022-07-11T04:31:17;10.35;;;6.80;;
27847;SDS011;15212;48.830;8.730;2022-07-11T04:33:46;10.72;;;6.47;;
27847;SDS011;15212;48.830;8.730;2022-07-11T04:36:14;10.82;;;7.70;;
27847;SDS011;15212;48.830;8.730;2022-07-11T04:38:43;10.50;;;6.85;;
27847;SDS011;15212;48.830;8.730;2022-07-11T04:41:11;11.05;;;7.55;;
27847;SDS011;15212;48.830;8.730;2022-07-11T04:43:39;13.18;;;7.33;;
27847;SDS011;15212;48.830;8.730;2022-07-11T04:46:08;11.08;;;6.70;;
27847;SDS011;15212;48.830;8.730;2022-07-11T04:48:37;15.80;;;7.33;;
27847;SDS011;15212;48.830;8.730;2022-07-11T04:51:05;12.50;;;7.37;;
27847;SDS011;15212;48.830;8.730;2022-07-11T04:53:34;11.48;;;7.42;;
27847;SDS011;15212;48.830;8.730;2022-07-11T04:56:03;13.15;;;6.55;;
27847;SDS011;15212;48.830;8.730;2022-07-11T04:58:33;11.05;;;6.70;;
27847;SDS011;15212;48.830;8.730;2022-07-11T05:01:04;13.05;;;6.72;;
27847;SDS011;15212;48.830;8.730;2022-07-11T05:03:33;12.20;;;6.65;;
27847;SDS011;15212;48.830;8.730;2022-07-11T05:06:02;11.38;;;6.95;;
27847;SDS011;15212;48.830;8.730;2022-07-11T05:08:32;14.23;;;6.53;;
27847;SDS011;15212;48.830;8.730;2022-07-11T05:11:03;11.03;;;6.47;;
27847;SDS011;15212;48.830;8.730;2022-07-11T05:13:31;10.55;;;6.80;;
27847;SDS011;15212;48.830;8.730;2022-07-11T05:16:00;10.45;;;6.30;;
27847;SDS011;15212;48.830;8.730;2022-07-11T05:18:28;10.18;;;6.05;;
27847;SDS011;15212;48.830;8.730;2022-07-11T05:20:57;7.90;;;5.95;;
27847;SDS011;15212;48.830;8.730;2022-07-11T05:23:25;8.30;;;6.37;;
27847;SDS011;15212;48.830;8.730;2022-07-11T05:25:54;10.60;;;6.53;;
27847;SDS011;15212;48.830;8.730;2022-07-11T05:28:22;10.03;;;6.60;;
27847;SDS011;15212;48.830;8.730;2022-07-11T05:30:50;12.68;;;6.67;;
27847;SDS011;15212;48.830;8.730;2022-07-11T05:33:19;11.60;;;6.28;;
27847;SDS011;15212;48.830;8.730;2022-07-11T05:35:47;8.83;;;6.03;;
27847;SDS011;15212;48.830;8.730;2022-07-11T05:38:16;9.73;;;6.03;;
27847;SDS011;15212;48.830;8.730;2022-07-11T05:40:44;9.88;;;5.75;;
27847;SDS011;15212;48.830;8.730;2022-07-11T05:43:12;8.08;;;5.33;;
27847;SDS011;15212;48.830;8.730;2022-07-11T05:45:41;7.70;;;5.00;;
27847;SDS011;15212;48.830;8.730;2022-07-11T05:48:09;8.20;;;4.37;;
27847;SDS011;15212;48.830;8.730;2022-07-11T05:50:37;7.80;;;4.42;;
27847;SDS011;15212;48.830;8.730;2022-07-11T05:53:06;6.35;;;4.30;;
27847;SDS011;15212;48.830;8.730;2022-07-11T05:55:36;7.87;;;4.55;;
27847;SDS011;15212;48.830;8.730;2022-07-11T05:58:04;8.70;;;4.75;;
27847;SDS011;15212;48.830;8.730;2022-07-11T06:00:33;7.40;;;4.47;;
27847;SDS011;15212;48.830;8.730;2022-07-11T06:03:01;6.45;;;4.15;;
27847;SDS011;15212;48.830;8.730;2022-07-11T06:05:30;6.90;;;4.05;;
27847;SDS011;15212;48.830;8.730;2022-07-11T06:07:58;6.92;;;3.05;;
27847;SDS011;15212;48.830;8.730;2022-07-11T06:10:44;5.58;;;2.98;;
27847;SDS011;15212;48.830;8.730;2022-07-11T06:13:13;7.67;;;3.67;;
27847;SDS011;15212;48.830;8.730;2022-07-11T06:15:41;4.42;;;3.30;;
27847;SDS011;15212;48.830;8.730;2022-07-11T06:18:10;5.45;;;3.52;;
27847;SDS011;15212;48.830;8.730;2022-07-11T06:20:38;6.12;;;3.60;;
27847;SDS011;15212;48.830;8.730;2022-07-11T06:23:07;4.67;;;2.85;;
27847;SDS011;15212;48.830;8.730;2022-07-11T06:25:35;8.50;;;3.52;;
27847;SDS011;15212;48.830;8.730;2022-07-11T06:28:04;9.10;;;3.10;;
27847;SDS011;15212;48.830;8.730;2022-07-11T06:30:33;7.20;;;3.15;;
27847;SDS011;15212;48.830;8.730;2022-07-11T06:33:03;6.00;;;2.52;;
27847;SDS011;15212;48.830;8.730;2022-07-11T06:35:31;5.80;;;2.20;;
27847;SDS011;15212;48.830;8.730;2022-07-11T06:38:00;5.25;;;2.60;;
27847;SDS011;15212;48.830;8.730;2022-07-11T06:40:28;4.17;;;2.00;;
27847;SDS011;15212;48.830;8.730;2022-07-11T06:42:57;5.12;;;1.90;;
27847;SDS011;15212;48.830;8.730;2022-07-11T06:45:25;4.37;;;2.10;;
27847;SDS011;15212;48.830;8.730;2022-07-11T06:47:54;3.62;;;1.60;;
27847;SDS011;15212;48.830;8.730;2022-07-11T06:50:22;1.80;;;1.10;;
27847;SDS011;15212;48.830;8.730;2022-07-11T06:52:50;1.62;;;1.22;;
27847;SDS011;15212;48.830;8.730;2022-07-11T06:55:19;2.30;;;1.30;;
27847;SDS011;15212;48.830;8.730;2022-07-11T06:57:47;2.12;;;1.37;;
27847;SDS011;15212;48.830;8.730;2022-07-11T07:00:18;3.70;;;1.20;;
27847;SDS011;15212;48.830;8.730;2022-07-11T07:02:46;2.08;;;1.12;;
27847;SDS011;15212;48.830;8.730;2022-07-11T07:05:15;1.80;;;1.10;;
27847;SDS011;15212;48.830;8.730;2022-07-11T07:07:44;2.55;;;1.80;;
27847;SDS011;15212;48.830;8.730;2022-07-11T07:10:13;3.30;;;1.60;;
27847;SDS011;15212;48.830;8.730;2022-07-11T07:12:41;2.35;;;1.27;;
27847;SDS011;15212;48.830;8.730;2022-07-11T07:15:11;2.83;;;1.37;;
27847;SDS011;15212;48.830;8.730;2022-07-11T07:17:39;4.58;;;1.70;;
27847;SDS011;15212;48.830;8.730;2022-07-11T07:20:08;4.95;;;2.10;;
27847;SDS011;15212;48.830;8.730;2022-07-11T07:22:37;3.55;;;2.27;;
27847;SDS011;15212;48.830;8.730;2022-07-11T07:25:06;4.58;;;1.70;;
27847;SDS011;15212;48.830;8.730;2022-07-11T07:27:35;4.08;;;2.02;;
27847;SDS011;15212;48.830;8.730;2022-07-11T07:30:04;3.25;;;2.20;;
27847;SDS011;15212;48.830;8.730;2022-07-11T07:32:33;3.12;;;1.85;;
27847;SDS011;15212;48.830;8.730;2022-07-11T07:35:01;4.00;;;2.02;;
27847;SDS011;15212;48.830;8.730;2022-07-11T07:37:30;2.98;;;1.47;;
27847;SDS011;15212;48.830;8.730;2022-07-11T07:39:58;4.60;;;1.72;;
27847;SDS011;15212;48.830;8.730;2022-07-11T07:42:26;1.87;;;1.30;;
27847;SDS011;15212;48.830;8.730;2022-07-11T07:44:55;1.67;;;1.30;;
27847;SDS011;15212;48.830;8.730;2022-07-11T07:47:23;3.52;;;1.60;;
27847;SDS011;15212;48.830;8.730;2022-07-11T07:49:53;4.20;;;1.27;;
27847;SDS011;15212;48.830;8.730;2022-07-11T07:52:22;1.80;;;1.12;;
27847;SDS011;15212;48.830;8.730;2022-07-11T07:54:50;2.67;;;1.20;;
27847;SDS011;15212;48.830;8.730;2022-07-11T07:57:18;3.37;;;1.05;;
27847;SDS011;15212;48.830;8.730;2022-07-11T07:59:47;1.45;;;1.10;;
27847;SDS011;15212;48.830;8.730;2022-07-11T08:02:15;1.35;;;1.20;;
27847;SDS011;15212;48.830;8.730;2022-07-11T08:04:44;3.47;;;1.30;;
27847;SDS011;15212;48.830;8.730;2022-07-11T08:07:12;1.95;;;1.00;;
27847;SDS011;15212;48.830;8.730;2022-07-11T08:09:40;2.08;;;1.02;;
27847;SDS011;15212;48.830;8.730;2022-07-11T08:12:09;3.17;;;1.00;;
27847;SDS011;15212;48.830;8.730;2022-07-11T08:14:37;3.58;;;1.17;;
27847;SDS011;15212;48.830;8.730;2022-07-11T08:17:06;1.55;;;1.20;;
27847;SDS011;15212;48.830;8.730;2022-07-11T08:19:34;4.20;;;1.20;;
27847;SDS011;15212;48.830;8.730;2022-07-11T08:22:02;2.83;;;1.20;;
27847;SDS011;15212;48.830;8.730;2022-07-11T08:24:31;4.75;;;1.02;;
27847;SDS011;15212;48.830;8.730;2022-07-11T08:26:59;1.40;;;0.98;;
27847;SDS011;15212;48.830;8.730;2022-07-11T08:29:29;1.67;;;1.17;;
27847;SDS011;15212;48.830;8.730;2022-07-11T08:31:57;2.05;;;1.30;;
27847;SDS011;15212;48.830;8.730;2022-07-11T08:34:25;1.22;;;1.10;;
27847;SDS011;15212;48.830;8.730;2022-07-11T08:36:54;3.02;;;1.42;;
27847;SDS011;15212;48.830;8.730;2022-07-11T08:39:23;4.20;;;1.65;;
27847;SDS011;15212;48.830;8.730;2022-07-11T08:41:51;2.42;;;1.50;;
27847;SDS011;15212;48.830;8.730;2022-07-11T08:44:20;1.67;;;1.42;;
27847;SDS011;15212;48.830;8.730;2022-07-11T08:46:49;2.52;;;1.40;;
27847;SDS011;15212;48.830;8.730;2022-07-11T08:49:20;6.42;;;1.70;;
27847;SDS011;15212;48.830;8.730;2022-07-11T08:51:49;2.20;;;1.50;;
27847;SDS011;15212;48.830;8.730;2022-07-11T08:54:18;3.75;;;2.00;;
27847;SDS011;15212;48.830;8.730;2022-07-11T08:56:47;4.47;;;1.50;;
27847;SDS011;15212;48.830;8.730;2022-07-11T08:59:16;3.08;;;1.77;;
27847;SDS011;15212;48.830;8.730;2022-07-11T09:01:45;3.02;;;1.37;;
27847;SDS011;15212;48.830;8.730;2022-07-11T09:04:16;2.40;;;1.70;;
27847;SDS011;15212;48.830;8.730;2022-07-11T09:06:45;2.25;;;1.55;;
27847;SDS011;15212;48.830;8.730;2022-07-11T09:09:13;1.30;;;1.20;;
27847;SDS011;15212;48.830;8.730;2022-07-11T09:11:48;2.17;;;1.52;;
27847;SDS011;15212;48.830;8.730;2022-07-11T09:14:24;3.67;;;1.40;;
27847;SDS011;15212;48.830;8.730;2022-07-11T09:19:30;2.00;;;1.17;;
27847;SDS011;15212;48.830;8.730;2022-07-11T09:22:06;2.37;;;1.60;;
27847;SDS011;15212;48.830;8.730;2022-07-11T09:24:55;4.03;;;1.67;;
27847;SDS011;15212;48.830;8.730;2022-07-11T09:27:50;8.13;;;1.70;;
27847;SDS011;15212;48.830;8.730;2022-07-11T09:33:14;3.70;;;1.62;;
27847;SDS011;15212;48.830;8.730;2022-07-11T09:35:42;2.95;;;1.57;;
27847;SDS011;15212;48.830;8.730;2022-07-11T09:38:13;2.37;;;1.35;;
27847;SDS011;15212;48.830;8.730;2022-07-11T09:40:44;2.80;;;1.50;;
27847;SDS011;15212;48.830;8.730;2022-07-11T09:43:14;2.00;;;1.50;;
27847;SDS011;15212;48.830;8.730;2022-07-11T09:45:51;4.22;;;1.60;;
27847;SDS011;15212;48.830;8.730;2022-07-11T09:48:19;3.30;;;1.47;;
27847;SDS011;15212;48.830;8.730;2022-07-11T09:50:55;2.40;;;1.60;;
27847;SDS011;15212;48.830;8.730;2022-07-11T09:53:29;2.08;;;1.40;;
27847;SDS011;15212;48.830;8.730;2022-07-11T09:55:57;1.80;;;1.40;;
27847;SDS011;15212;48.830;8.730;2022-07-11T09:58:28;3.50;;;1.42;;
27847;SDS011;15212;48.830;8.730;2022-07-11T10:00:57;7.47;;;1.90;;
27847;SDS011;15212;48.830;8.730;2022-07-11T10:03:26;2.75;;;1.70;;
27847;SDS011;15212;48.830;8.730;2022-07-11T10:05:56;2.65;;;1.22;;
27847;SDS011;15212;48.830;8.730;2022-07-11T10:08:25;2.27;;;1.50;;
27847;SDS011;15212;48.830;8.730;2022-07-11T10:10:53;2.37;;;1.35;;
27847;SDS011;15212;48.830;8.730;2022-07-11T10:13:22;3.80;;;1.50;;
27847;SDS011;15212;48.830;8.730;2022-07-11T10:15:51;2.22;;;1.40;;
27847;SDS011;15212;48.830;8.730;2022-07-11T10:18:33;1.62;;;1.40;;
27847;SDS011;15212;48.830;8.730;2022-07-11T10:21:27;2.60;;;1.72;;
27847;SDS011;15212;48.830;8.730;2022-07-11T10:24:03;2.42;;;1.60;;
27847;SDS011;15212;48.830;8.730;2022-07-11T10:32:13;3.12;;;1.60;;
27847;SDS011;15212;48.830;8.730;2022-07-11T10:34:42;2.58;;;1.85;;
27847;SDS011;15212;48.830;8.730;2022-07-11T10:37:13;2.37;;;1.60;;
27847;SDS011;15212;48.830;8.730;2022-07-11T10:39:56;2.85;;;1.70;;
27847;SDS011;15212;48.830;8.730;2022-07-11T10:42:37;2.60;;;1.80;;
27847;SDS011;15212;48.830;8.730;2022-07-11T10:45:08;3.50;;;1.90;;
27847;SDS011;15212;48.830;8.730;2022-07-11T10:47:41;3.72;;;2.00;;
27847;SDS011;15212;48.830;8.730;2022-07-11T10:50:20;3.67;;;1.70;;
27847;SDS011;15212;48.830;8.730;2022-07-11T10:53:07;3.67;;;1.87;;
27847;SDS011;15212;48.830;8.730;2022-07-11T10:55:39;2.65;;;1.98;;
27847;SDS011;15212;48.830;8.730;2022-07-11T10:58:28;1.77;;;1.65;;
27847;SDS011;15212;48.830;8.730;2022-07-11T11:01:09;2.72;;;1.57;;
27847;SDS011;15212;48.830;8.730;2022-07-11T11:03:43;3.20;;;1.50;;
27847;SDS011;15212;48.830;8.730;2022-07-11T11:06:12;3.10;;;1.50;;
27847;SDS011;15212;48.830;8.730;2022-07-11T11:08:42;2.85;;;1.80;;
27847;SDS011;15212;48.830;8.730;2022-07-11T11:16:49;2.27;;;1.50;;
27847;SDS011;15212;48.830;8.730;2022-07-11T11:22:22;3.37;;;1.50;;
27847;SDS011;15212;48.830;8.730;2022-07-11T11:24:52;2.52;;;1.70;;
27847;SDS011;15212;48.830;8.730;2022-07-11T11:27:22;2.20;;;1.70;;
27847;SDS011;15212;48.830;8.730;2022-07-11T11:29:53;6.25;;;1.80;;
27847;SDS011;15212;48.830;8.730;2022-07-11T11:32:28;2.80;;;1.62;;
27847;SDS011;15212;48.830;8.730;2022-07-11T11:34:57;2.27;;;1.80;;
27847;SDS011;15212;48.830;8.730;2022-07-11T11:37:25;2.52;;;1.80;;
27847;SDS011;15212;48.830;8.730;2022-07-11T11:39:58;4.62;;;1.72;;
27847;SDS011;15212;48.830;8.730;2022-07-11T11:42:27;3.30;;;1.85;;
27847;SDS011;15212;48.830;8.730;2022-07-11T11:45:03;2.92;;;1.70;;
27847;SDS011;15212;48.830;8.730;2022-07-11T11:47:29;2.42;;;1.72;;
27847;SDS011;15212;48.830;8.730;2022-07-11T11:49:58;6.97;;;2.27;;
27847;SDS011;15212;48.830;8.730;2022-07-11T11:52:27;1.55;;;1.30;;
27847;SDS011;15212;48.830;8.730;2022-07-11T11:54:56;3.05;;;1.52;;
27847;SDS011;15212;48.830;8.730;2022-07-11T11:57:26;1.92;;;1.27;;
27847;SDS011;15212;48.830;8.730;2022-07-11T11:59:56;2.20;;;1.50;;
27847;SDS011;15212;48.830;8.730;2022-07-11T12:02:29;4.72;;;1.60;;
27847;SDS011;15212;48.830;8.730;2022-07-11T12:04:57;2.67;;;1.40;;
27847;SDS011;15212;48.830;8.730;2022-07-11T12:07:26;3.60;;;1.50;;
27847;SDS011;15212;48.830;8.730;2022-07-11T12:09:57;1.92;;;1.40;;
27847;SDS011;15212;48.830;8.730;2022-07-11T12:12:28;3.72;;;1.62;;
27847;SDS011;15212;48.830;8.730;2022-07-11T12:18:04;3.25;;;1.67;;
27847;SDS011;15212;48.830;8.730;2022-07-11T12:20:33;3.52;;;1.57;;
27847;SDS011;15212;48.830;8.730;2022-07-11T12:23:12;2.92;;;1.75;;
27847;SDS011;15212;48.830;8.730;2022-07-11T12:25:43;2.60;;;1.60;;
27847;SDS011;15212;48.830;8.730;2022-07-11T12:28:12;3.50;;;1.72;;
27847;SDS011;15212;48.830;8.730;2022-07-11T12:30:41;2.00;;;1.65;;
27847;SDS011;15212;48.830;8.730;2022-07-11T12:33:15;2.77;;;1.70;;
27847;SDS011;15212;48.830;8.730;2022-07-11T12:36:01;1.87;;;1.35;;
27847;SDS011;15212;48.830;8.730;2022-07-11T12:41:17;2.15;;;1.60;;
27847;SDS011;15212;48.830;8.730;2022-07-11T12:43:47;3.42;;;1.62;;
27847;SDS011;15212;48.830;8.730;2022-07-11T12:46:36;2.45;;;1.60;;
27847;SDS011;15212;48.830;8.730;2022-07-11T12:49:14;2.62;;;1.60;;
27847;SDS011;15212;48.830;8.730;2022-07-11T12:51:42;4.05;;;1.70;;
27847;SDS011;15212;48.830;8.730;2022-07-11T12:54:13;2.80;;;1.75;;
27847;SDS011;15212;48.830;8.730;2022-07-11T12:56:53;3.95;;;1.55;;
27847;SDS011;15212;48.830;8.730;2022-07-11T12:59:24;4.28;;;1.70;;
27847;SDS011;15212;48.830;8.730;2022-07-11T13:01:57;3.92;;;1.50;;
27847;SDS011;15212;48.830;8.730;2022-07-11T13:04:34;2.65;;;1.62;;
27847;SDS011;15212;48.830;8.730;2022-07-11T13:07:27;3.00;;;1.55;;
27847;SDS011;15212;48.830;8.730;2022-07-11T13:12:48;2.62;;;1.70;;
27847;SDS011;15212;48.830;8.730;2022-07-11T13:15:20;6.65;;;1.50;;
27847;SDS011;15212;48.830;8.730;2022-07-11T13:17:50;3.10;;;1.70;;
27847;SDS011;15212;48.830;8.730;2022-07-11T13:20:21;2.85;;;1.77;;
27847;SDS011;15212;48.830;8.730;2022-07-11T13:22:54;3.10;;;1.82;;
27847;SDS011;15212;48.830;8.730;2022-07-11T13:25:23;3.85;;;1.57;;
27847;SDS011;15212;48.830;8.730;2022-07-11T13:27:52;3.15;;;1.45;;
27847;SDS011;15212;48.830;8.730;2022-07-11T13:30:21;4.20;;;1.50;;
27847;SDS011;15212;48.830;8.730;2022-07-11T13:32:52;2.17;;;1.67;;
27847;SDS011;15212;48.830;8.730;2022-07-11T13:35:20;4.50;;;1.85;;
27847;SDS011;15212;48.830;8.730;2022-07-11T13:37:49;1.60;;;1.47;;
27847;SDS011;15212;48.830;8.730;2022-07-11T13:40:20;2.55;;;1.90;;
27847;SDS011;15212;48.830;8.730;2022-07-11T13:42:50;2.40;;;1.50;;
27847;SDS011;15212;48.830;8.730;2022-07-11T13:45:20;2.70;;;1.67;;
27847;SDS011;15212;48.830;8.730;2022-07-11T13:47:49;3.87;;;1.65;;
27847;SDS011;15212;48.830;8.730;2022-07-11T13:50:19;3.90;;;2.80;;
27847;SDS011;15212;48.830;8.730;2022-07-11T13:52:48;2.92;;;1.62;;
27847;SDS011;15212;48.830;8.730;2022-07-11T13:55:22;2.77;;;1.30;;
27847;SDS011;15212;48.830;8.730;2022-07-11T13:57:52;4.70;;;1.50;;
27847;SDS011;15212;48.830;8.730;2022-07-11T14:00:22;2.30;;;1.60;;
27847;SDS011;15212;48.830;8.730;2022-07-11T14:02:51;2.40;;;1.85;;
27847;SDS011;15212;48.830;8.730;2022-07-11T14:05:20;2.62;;;1.70;;
27847;SDS011;15212;48.830;8.730;2022-07-11T14:07:48;3.33;;;1.50;;
27847;SDS011;15212;48.830;8.730;2022-07-11T14:10:18;3.92;;;1.77;;
27847;SDS011;15212;48.830;8.730;2022-07-11T14:12:46;3.22;;;1.75;;
27847;SDS011;15212;48.830;8.730;2022-07-11T14:15:14;2.47;;;1.62;;
27847;SDS011;15212;48.830;8.730;2022-07-11T14:17:43;2.70;;;2.02;;
27847;SDS011;15212;48.830;8.730;2022-07-11T14:20:11;2.90;;;1.70;;
27847;SDS011;15212;48.830;8.730;2022-07-11T14:22:40;4.30;;;1.80;;
27847;SDS011;15212;48.830;8.730;2022-07-11T14:25:08;2.05;;;1.50;;
27847;SDS011;15212;48.830;8.730;2022-07-11T14:27:37;5.72;;;1.70;;
27847;SDS011;15212;48.830;8.730;2022-07-11T14:30:06;3.50;;;2.10;;
27847;SDS011;15212;48.830;8.730;2022-07-11T14:32:35;4.03;;;1.75;;
27847;SDS011;15212;48.830;8.730;2022-07-11T14:35:03;4.08;;;1.98;;
27847;SDS011;15212;48.830;8.730;2022-07-11T14:37:33;2.27;;;1.90;;
27847;SDS011;15212;48.830;8.730;2022-07-11T14:40:01;2.80;;;1.70;;
27847;SDS011;15212;48.830;8.730;2022-07-11T14:42:30;4.50;;;1.90;;
27847;SDS011;15212;48.830;8.730;2022-07-11T14:44:58;5.03;;;1.90;;
27847;SDS011;15212;48.830;8.730;2022-07-11T14:47:27;5.60;;;2.10;;
27847;SDS011;15212;48.830;8.730;2022-07-11T14:49:55;5.20;;;1.95;;
27847;SDS011;15212;48.830;8.730;2022-07-11T14:52:23;5.90;;;2.05;;
27847;SDS011;15212;48.830;8.730;2022-07-11T14:54:52;3.58;;;2.25;;
27847;SDS011;15212;48.830;8.730;2022-07-11T14:57:20;5.12;;;1.95;;
27847;SDS011;15212;48.830;8.730;2022-07-11T14:59:49;3.65;;;1.90;;
27847;SDS011;15212;48.830;8.730;2022-07-11T15:02:18;3.05;;;1.70;;
27847;SDS011;15212;48.830;8.730;2022-07-11T15:04:48;6.22;;;1.82;;
27847;SDS011;15212;48.830;8.730;2022-07-11T15:07:17;4.80;;;1.62;;
27847;SDS011;15212;48.830;8.730;2022-07-11T15:12:49;4.28;;;1.85;;
27847;SDS011;15212;48.830;8.730;2022-07-11T15:15:17;6.40;;;1.87;;
27847;SDS011;15212;48.830;8.730;2022-07-11T15:17:46;5.10;;;2.05;;
27847;SDS011;15212;48.830;8.730;2022-07-11T15:20:14;5.65;;;2.12;;
27847;SDS011;15212;48.830;8.730;2022-07-11T15:22:43;7.20;;;2.00;;
27847;SDS011;15212;48.830;8.730;2022-07-11T15:25:11;6.45;;;2.20;;
27847;SDS011;15212;48.830;8.730;2022-07-11T15:27:41;6.47;;;1.95;;
27847;SDS011;15212;48.830;8.730;2022-07-11T15:30:10;4.58;;;1.72;;
27847;SDS011;15212;48.830;8.730;2022-07-11T15:32:43;6.12;;;1.62;;